Time;durP1;ratioP1;P1;durP2;ratioP2;P2;SDS_P1;SDS_P2;PMS_P1;PMS_P2;Temp;Humidity;BMP_temperature;BMP_pressure;BME280_temperature;BME280_humidity;BME280_pressure;Samples;Min_cycle;Max_cycle;Signal;HPM_P1;HPM_P2
2022/06/25 00:01:15;;;;;;;2.75;1.50;;;;;;;;;;5031825;28;20423;-70
2022/06/25 00:03:42;;;;;;;3.85;1.90;;;;;;;;;;5011888;28;20358;-70
2022/06/25 00:06:08;;;;;;;3.00;1.70;;;;;;;;;;5011604;28;20380;-70
2022/06/25 00:08:34;;;;;;;2.58;1.40;;;;;;;;;;5012480;28;20036;-70
2022/06/25 00:11:00;;;;;;;2.47;1.50;;;;;;;;;;5011445;28;20446;-71
2022/06/25 00:13:26;;;;;;;1.73;1.30;;;;;;;;;;5011549;28;20435;-70
2022/06/25 00:15:52;;;;;;;2.42;1.67;;;;;;;;;;5010971;28;20552;-70
2022/06/25 00:18:18;;;;;;;2.97;1.95;;;;;;;;;;5029775;28;20468;-70
2022/06/25 00:20:44;;;;;;;3.78;1.80;;;;;;;;;;5011972;28;20335;-72
2022/06/25 00:23:10;;;;;;;3.85;1.85;;;;;;;;;;4994707;28;20413;-70
2022/06/25 00:25:35;;;;;;;3.70;2.00;;;;;;;;;;5011515;28;20319;-70
2022/06/25 00:28:01;;;;;;;2.67;1.90;;;;;;;;;;5029709;28;20463;-70
2022/06/25 00:30:27;;;;;;;2.03;1.75;;;;;;;;;;5030213;28;21424;-70
2022/06/25 00:32:52;;;;;;;3.15;1.85;;;;;;;;;;5010898;28;20546;-70
2022/06/25 00:35:18;;;;;;;6.05;1.90;;;;;;;;;;5029605;28;20350;-70
2022/06/25 00:37:43;;;;;;;4.38;1.65;;;;;;;;;;5029878;28;20028;-70
2022/06/25 00:40:10;;;;;;;3.00;1.65;;;;;;;;;;5011180;28;20370;-70
2022/06/25 00:42:36;;;;;;;3.38;2.00;;;;;;;;;;5011313;28;20362;-70
2022/06/25 00:45:01;;;;;;;2.33;1.67;;;;;;;;;;5029583;28;20359;-70
2022/06/25 00:47:27;;;;;;;2.70;1.88;;;;;;;;;;5028800;28;20485;-70
2022/06/25 00:49:53;;;;;;;2.78;1.73;;;;;;;;;;5029444;28;20359;-70
2022/06/25 00:52:20;;;;;;;3.15;1.70;;;;;;;;;;5029644;28;20032;-70
2022/06/25 00:54:55;;;;;;;2.92;1.80;;;;;;;;;;4994575;28;20524;-71
2022/06/25 00:57:26;;;;;;;2.83;1.50;;;;;;;;;;5012349;28;20415;-70
2022/06/25 00:59:53;;;;;;;5.55;1.80;;;;;;;;;;5030333;28;20431;-70
2022/06/25 01:02:22;;;;;;;2.78;1.85;;;;;;;;;;5006201;28;20350;-70
2022/06/25 01:04:48;;;;;;;;;;;;;;;;;;5009299;28;20514;-70
2022/06/25 01:07:13;;;;;;;2.47;1.67;;;;;;;;;;4991035;28;20346;-70
2022/06/25 01:09:40;;;;;;;3.35;1.98;;;;;;;;;;4991179;28;20455;-70
2022/06/25 01:12:06;;;;;;;2.03;1.52;;;;;;;;;;5009073;28;20052;-71
2022/06/25 01:14:31;;;;;;;7.80;1.90;;;;;;;;;;4991797;28;20052;-70
2022/06/25 01:16:57;;;;;;;3.65;1.88;;;;;;;;;;4991276;28;20024;-72
2022/06/25 01:19:22;;;;;;;1.90;1.50;;;;;;;;;;5008995;28;20348;-70
2022/06/25 01:21:48;;;;;;;2.28;1.75;;;;;;;;;;5008740;28;20055;-71
2022/06/25 01:24:13;;;;;;;9.70;2.13;;;;;;;;;;5010174;28;20435;-72
2022/06/25 01:26:40;;;;;;;5.45;2.17;;;;;;;;;;5009238;28;20532;-70
2022/06/25 01:29:06;;;;;;;2.42;1.88;;;;;;;;;;5008732;28;20462;-70
2022/06/25 01:31:32;;;;;;;3.45;1.65;;;;;;;;;;5008507;28;20508;-71
2022/06/25 01:33:58;;;;;;;1.88;1.65;;;;;;;;;;5009883;28;20386;-70
2022/06/25 01:36:23;;;;;;;3.08;1.60;;;;;;;;;;4990861;28;20090;-71
2022/06/25 01:38:49;;;;;;;4.82;1.80;;;;;;;;;;4990692;28;20028;-70
2022/06/25 01:41:14;;;;;;;2.17;1.55;;;;;;;;;;5009102;28;20423;-72
2022/06/25 01:43:40;;;;;;;2.67;1.80;;;;;;;;;;4991267;28;20546;-70
2022/06/25 01:46:06;;;;;;;3.08;1.65;;;;;;;;;;5009672;28;20489;-71
2022/06/25 01:48:32;;;;;;;5.20;2.10;;;;;;;;;;5011987;28;20320;-71
2022/06/25 01:50:57;;;;;;;3.80;1.90;;;;;;;;;;4994830;28;20389;-71
2022/06/25 01:53:23;;;;;;;2.67;1.83;;;;;;;;;;4994518;28;20515;-70
2022/06/25 01:55:48;;;;;;;2.70;2.03;;;;;;;;;;5012188;28;20358;-70
2022/06/25 01:58:13;;;;;;;3.40;2.03;;;;;;;;;;5012332;28;20514;-71
2022/06/25 02:00:39;;;;;;;2.67;1.52;;;;;;;;;;4994161;28;20423;-71
2022/06/25 02:03:05;;;;;;;3.50;1.90;;;;;;;;;;4994571;28;20419;-70
2022/06/25 02:08:16;;;;;;;1.92;1.52;;;;;;;;;;5012555;28;20447;-70
2022/06/25 02:10:42;;;;;;;2.85;1.65;;;;;;;;;;5012168;28;20415;-70
2022/06/25 02:13:08;;;;;;;1.80;1.60;;;;;;;;;;5012146;28;20464;-70
2022/06/25 02:15:34;;;;;;;3.22;1.77;;;;;;;;;;4994118;28;20497;-70
2022/06/25 02:17:59;;;;;;;2.63;1.95;;;;;;;;;;4994123;28;20366;-70
2022/06/25 02:20:25;;;;;;;3.03;1.95;;;;;;;;;;5011802;28;20519;-70
2022/06/25 02:22:50;;;;;;;3.20;1.88;;;;;;;;;;4993349;28;20497;-71
2022/06/25 02:25:16;;;;;;;5.38;1.92;;;;;;;;;;4993792;28;20455;-71
2022/06/25 02:27:42;;;;;;;1.77;1.52;;;;;;;;;;5011163;28;20459;-71
2022/06/25 02:30:07;;;;;;;3.35;1.95;;;;;;;;;;5011731;28;20451;-70
2022/06/25 02:32:33;;;;;;;3.05;2.10;;;;;;;;;;5011348;28;20447;-71
2022/06/25 02:34:59;;;;;;;4.45;1.95;;;;;;;;;;5010115;28;20421;-71
2022/06/25 02:37:25;;;;;;;2.35;1.45;;;;;;;;;;5011432;28;20093;-70
2022/06/25 02:39:50;;;;;;;2.58;1.90;;;;;;;;;;5011170;28;20422;-70
2022/06/25 02:42:15;;;;;;;2.90;1.83;;;;;;;;;;4993723;28;20431;-72
2022/06/25 02:44:41;;;;;;;3.70;1.77;;;;;;;;;;5011161;28;20107;-72
2022/06/25 02:47:07;;;;;;;7.88;2.25;;;;;;;;;;5011451;28;20465;-70
2022/06/25 02:49:32;;;;;;;2.78;1.85;;;;;;;;;;5011369;28;20417;-70
2022/06/25 02:51:58;;;;;;;2.13;1.80;;;;;;;;;;4993486;28;20036;-70
2022/06/25 02:54:23;;;;;;;4.68;1.90;;;;;;;;;;4993426;28;20413;-70
2022/06/25 02:59:38;;;;;;;3.13;1.75;;;;;;;;;;4996730;28;20335;-70
2022/06/25 03:02:03;;;;;;;3.28;1.98;;;;;;;;;;5011014;28;20348;-71
2022/06/25 03:04:29;;;;;;;4.43;1.55;;;;;;;;;;5012952;28;20371;-70
2022/06/25 03:06:54;;;;;;;4.20;2.05;;;;;;;;;;5011568;28;20433;-72
2022/06/25 03:09:20;;;;;;;5.18;1.85;;;;;;;;;;5011254;28;20106;-70
2022/06/25 03:11:45;;;;;;;3.38;1.88;;;;;;;;;;5011282;28;20497;-71
2022/06/25 03:14:11;;;;;;;2.92;2.10;;;;;;;;;;4993001;28;20430;-71
2022/06/25 03:16:37;;;;;;;3.78;2.30;;;;;;;;;;5010361;28;20042;-70
2022/06/25 03:19:03;;;;;;;2.05;1.60;;;;;;;;;;5010130;28;20351;-70
2022/06/25 03:21:29;;;;;;;2.22;1.65;;;;;;;;;;5011245;28;20362;-71
2022/06/25 03:23:54;;;;;;;3.33;2.20;;;;;;;;;;5010752;28;20378;-70
2022/06/25 03:26:19;;;;;;;3.13;1.75;;;;;;;;;;5010386;28;20440;-72
2022/06/25 03:28:47;;;;;;;1.83;1.40;;;;;;;;;;4992436;28;20451;-70
2022/06/25 03:31:12;;;;;;;3.20;1.75;;;;;;;;;;5010637;28;20408;-71
2022/06/25 03:33:38;;;;;;;4.32;2.03;;;;;;;;;;4993674;28;20435;-71
2022/06/25 03:36:03;;;;;;;4.72;2.05;;;;;;;;;;5010619;28;20177;-70
2022/06/25 03:38:29;;;;;;;3.65;2.00;;;;;;;;;;4992287;28;20399;-71
2022/06/25 03:41:32;;;;;;;3.22;2.00;;;;;;;;;;5010364;28;20055;-70
2022/06/25 03:43:40;;;;;;;2.83;1.67;;;;;;;;;;5011828;28;20320;-70
2022/06/25 03:46:05;;;;;;;2.42;1.67;;;;;;;;;;4991963;28;20033;-71
2022/06/25 03:48:31;;;;;;;4.78;1.83;;;;;;;;;;4992499;28;20028;-70
2022/06/25 03:50:57;;;;;;;3.10;2.00;;;;;;;;;;4991969;28;20036;-70
2022/06/25 03:53:23;;;;;;;2.60;1.70;;;;;;;;;;5010533;28;20016;-71
2022/06/25 03:55:49;;;;;;;1.77;1.48;;;;;;;;;;5010450;28;20439;-70
2022/06/25 03:58:14;;;;;;;2.40;1.75;;;;;;;;;;5009758;28;20455;-70
2022/06/25 04:00:39;;;;;;;3.25;1.90;;;;;;;;;;5010389;28;20433;-70
2022/06/25 04:03:05;;;;;;;2.10;1.48;;;;;;;;;;5009857;28;20024;-70
2022/06/25 04:05:31;;;;;;;2.45;1.83;;;;;;;;;;5009977;28;20431;-71
2022/06/25 04:07:56;;;;;;;2.10;1.65;;;;;;;;;;5007814;28;20457;-70
2022/06/25 04:10:22;;;;;;;2.53;1.83;;;;;;;;;;4991901;28;20459;-70
2022/06/25 04:12:47;;;;;;;3.40;1.92;;;;;;;;;;5010165;28;20510;-71
2022/06/25 04:15:13;;;;;;;6.97;2.20;;;;;;;;;;5008797;28;20530;-70
2022/06/25 04:17:38;;;;;;;9.60;2.00;;;;;;;;;;5010091;28;20032;-70
2022/06/25 04:20:04;;;;;;;4.55;1.55;;;;;;;;;;5009394;28;20343;-70
2022/06/25 04:22:29;;;;;;;2.55;1.75;;;;;;;;;;5010489;28;20366;-70
2022/06/25 04:24:55;;;;;;;2.15;1.73;;;;;;;;;;5009211;28;20459;-70
2022/06/25 04:30:12;;;;;;;4.38;1.90;;;;;;;;;;4985385;28;20344;-69
2022/06/25 04:32:37;;;;;;;2.83;1.80;;;;;;;;;;5009290;28;20028;-69
2022/06/25 04:35:03;;;;;;;4.70;1.95;;;;;;;;;;4991422;28;20178;-71
2022/06/25 04:37:28;;;;;;;2.40;1.77;;;;;;;;;;5008557;28;20438;-70
2022/06/25 04:39:54;;;;;;;2.13;1.77;;;;;;;;;;5009540;28;20348;-70
2022/06/25 04:42:19;;;;;;;2.53;1.85;;;;;;;;;;5009958;28;20462;-70
2022/06/25 04:44:44;;;;;;;3.58;1.80;;;;;;;;;;5009460;28;20447;-69
2022/06/25 04:47:10;;;;;;;2.53;1.70;;;;;;;;;;4991315;28;20434;-70
2022/06/25 04:49:36;;;;;;;2.30;1.52;;;;;;;;;;5009011;28;20366;-70
2022/06/25 04:52:01;;;;;;;5.43;1.83;;;;;;;;;;4991553;28;20052;-70
2022/06/25 04:54:27;;;;;;;2.50;1.45;;;;;;;;;;4974832;28;20523;-69
2022/06/25 04:56:52;;;;;;;2.60;1.70;;;;;;;;;;5008878;28;20316;-70
2022/06/25 04:59:18;;;;;;;3.90;2.20;;;;;;;;;;4991177;28;20032;-70
2022/06/25 05:01:44;;;;;;;9.43;1.98;;;;;;;;;;5009414;28;20483;-70
2022/06/25 05:04:10;;;;;;;3.35;1.65;;;;;;;;;;5008724;28;20505;-70
2022/06/25 05:06:35;;;;;;;3.40;1.70;;;;;;;;;;5009406;28;20033;-70
2022/06/25 05:09:01;;;;;;;2.25;1.52;;;;;;;;;;5010329;28;20346;-70
2022/06/25 05:11:26;;;;;;;3.53;1.90;;;;;;;;;;5009585;28;20355;-70
2022/06/25 05:13:51;;;;;;;3.80;1.55;;;;;;;;;;5008998;28;20419;-70
2022/06/25 05:16:17;;;;;;;2.95;1.40;;;;;;;;;;4991224;28;20048;-70
2022/06/25 05:18:43;;;;;;;4.00;2.05;;;;;;;;;;5008741;28;20478;-70
2022/06/25 05:21:08;;;;;;;3.10;1.50;;;;;;;;;;5011522;28;20028;-69
2022/06/25 05:23:34;;;;;;;2.60;1.75;;;;;;;;;;5012783;28;20328;-70
2022/06/25 05:25:59;;;;;;;2.90;1.77;;;;;;;;;;5012637;28;20524;-70
2022/06/25 05:28:24;;;;;;;3.03;1.50;;;;;;;;;;4995785;28;20411;-70
2022/06/25 05:30:50;;;;;;;2.13;1.60;;;;;;;;;;5012614;28;20435;-70
2022/06/25 05:33:15;;;;;;;3.20;1.63;;;;;;;;;;4995105;28;20433;-69
2022/06/25 05:35:41;;;;;;;1.77;1.40;;;;;;;;;;4995030;28;20462;-69
2022/06/25 05:38:07;;;;;;;2.50;1.48;;;;;;;;;;5013247;28;20061;-70
2022/06/25 05:40:34;;;;;;;2.22;1.58;;;;;;;;;;4978449;28;20433;-70
2022/06/25 05:42:59;;;;;;;3.58;1.80;;;;;;;;;;4995676;28;20362;-70
2022/06/25 05:45:25;;;;;;;2.67;1.52;;;;;;;;;;5013289;28;20337;-71
2022/06/25 05:47:50;;;;;;;4.15;2.00;;;;;;;;;;4994396;28;20047;-71
2022/06/25 05:50:16;;;;;;;3.15;2.00;;;;;;;;;;5012331;28;20437;-70
2022/06/25 05:52:41;;;;;;;5.63;2.08;;;;;;;;;;5013383;28;20028;-70
2022/06/25 05:55:07;;;;;;;3.20;1.58;;;;;;;;;;5012394;28;20428;-70
2022/06/25 05:57:32;;;;;;;2.10;1.58;;;;;;;;;;5012158;28;20347;-70
2022/06/25 05:59:58;;;;;;;2.13;1.60;;;;;;;;;;5013234;28;20399;-69
2022/06/25 06:02:26;;;;;;;1.83;1.60;;;;;;;;;;4994357;28;20366;-70
2022/06/25 06:04:53;;;;;;;2.30;1.63;;;;;;;;;;5012529;28;20033;-70
2022/06/25 06:07:18;;;;;;;2.97;1.73;;;;;;;;;;5012371;28;20470;-70
2022/06/25 06:09:44;;;;;;;3.22;1.92;;;;;;;;;;5012659;28;20407;-70
2022/06/25 06:12:09;;;;;;;2.85;1.88;;;;;;;;;;5012988;28;20410;-70
2022/06/25 06:14:34;;;;;;;3.30;1.70;;;;;;;;;;5012151;28;20474;-70
2022/06/25 06:17:00;;;;;;;4.68;1.60;;;;;;;;;;5013305;28;20020;-70
2022/06/25 06:19:25;;;;;;;2.15;1.63;;;;;;;;;;4994159;28;20379;-71
2022/06/25 06:21:51;;;;;;;2.17;1.60;;;;;;;;;;5012444;28;20489;-70
2022/06/25 06:24:16;;;;;;;2.13;1.63;;;;;;;;;;5012611;28;20408;-70
2022/06/25 06:26:42;;;;;;;1.70;1.40;;;;;;;;;;5010782;28;20487;-69
2022/06/25 06:29:07;;;;;;;1.85;1.55;;;;;;;;;;5011656;28;20484;-70
2022/06/25 06:31:32;;;;;;;2.00;1.60;;;;;;;;;;5010130;28;20434;-70
2022/06/25 06:33:58;;;;;;;2.78;1.75;;;;;;;;;;4994119;28;20343;-70
2022/06/25 06:36:23;;;;;;;2.08;1.55;;;;;;;;;;5011735;28;20420;-70
2022/06/25 06:38:49;;;;;;;3.47;1.73;;;;;;;;;;4994113;28;20431;-70
2022/06/25 06:41:16;;;;;;;2.92;2.08;;;;;;;;;;5012474;28;20482;-69
2022/06/25 06:43:42;;;;;;;5.10;1.75;;;;;;;;;;5012001;28;20423;-69
2022/06/25 06:46:08;;;;;;;2.13;1.20;;;;;;;;;;4993715;28;20457;-69
2022/06/25 06:48:33;;;;;;;3.15;1.30;;;;;;;;;;5009389;28;20028;-69
2022/06/25 06:50:58;;;;;;;3.60;1.75;;;;;;;;;;5011502;28;20370;-69
2022/06/25 06:53:24;;;;;;;2.05;1.45;;;;;;;;;;5010863;28;20516;-70
2022/06/25 06:55:50;;;;;;;2.58;1.40;;;;;;;;;;5011626;28;20496;-69
2022/06/25 06:58:16;;;;;;;2.47;1.65;;;;;;;;;;5012520;28;20086;-69
2022/06/25 07:00:41;;;;;;;4.05;1.70;;;;;;;;;;4993397;28;20440;-69
2022/06/25 07:03:07;;;;;;;2.33;1.50;;;;;;;;;;5011223;28;20459;-69
2022/06/25 07:05:32;;;;;;;3.28;1.55;;;;;;;;;;5012120;28;20478;-69
2022/06/25 07:07:58;;;;;;;1.75;1.23;;;;;;;;;;4993598;28;20059;-70
2022/06/25 07:10:23;;;;;;;1.75;1.25;;;;;;;;;;5010902;28;20036;-69
2022/06/25 07:12:49;;;;;;;1.90;1.30;;;;;;;;;;5010983;28;20413;-69
2022/06/25 07:15:14;;;;;;;3.33;1.58;;;;;;;;;;4993209;28;20388;-69
2022/06/25 07:17:39;;;;;;;1.75;1.40;;;;;;;;;;5010682;28;20342;-70
2022/06/25 07:20:06;;;;;;;2.35;1.58;;;;;;;;;;5010566;28;20032;-69
2022/06/25 07:22:32;;;;;;;3.15;1.40;;;;;;;;;;5011145;28;20510;-70
2022/06/25 07:24:57;;;;;;;1.52;1.20;;;;;;;;;;5010870;28;20519;-69
2022/06/25 07:27:23;;;;;;;1.70;1.38;;;;;;;;;;5010631;28;20383;-69
2022/06/25 07:29:48;;;;;;;1.92;1.65;;;;;;;;;;4992476;28;20092;-70
2022/06/25 07:32:13;;;;;;;2.42;1.30;;;;;;;;;;5010120;28;20444;-69
2022/06/25 07:34:39;;;;;;;2.03;1.48;;;;;;;;;;5009094;28;20347;-69
2022/06/25 07:37:04;;;;;;;3.83;1.77;;;;;;;;;;5011861;28;20359;-69
2022/06/25 07:39:30;;;;;;;2.28;1.40;;;;;;;;;;5010280;28;20020;-69
2022/06/25 07:41:55;;;;;;;2.63;1.50;;;;;;;;;;5012044;28;20307;-69
2022/06/25 07:44:21;;;;;;;2.83;1.60;;;;;;;;;;5009657;28;20528;-69
2022/06/25 07:46:47;;;;;;;2.30;1.67;;;;;;;;;;5010380;28;20450;-69
2022/06/25 07:49:13;;;;;;;2.13;1.50;;;;;;;;;;4992093;28;20454;-69
2022/06/25 07:51:59;;;;;;;3.05;1.60;;;;;;;;;;5011306;28;20340;-68
2022/06/25 07:54:27;;;;;;;3.30;1.70;;;;;;;;;;4995611;28;20309;-69
2022/06/25 07:56:52;;;;;;;1.40;1.30;;;;;;;;;;5009848;28;20051;-69
2022/06/25 07:59:18;;;;;;;4.55;1.48;;;;;;;;;;5010080;28;20435;-69
2022/06/25 08:01:44;;;;;;;1.30;1.20;;;;;;;;;;4992754;28;20422;-69
2022/06/25 08:04:09;;;;;;;2.42;1.60;;;;;;;;;;5010479;28;20374;-69
2022/06/25 08:06:38;;;;;;;2.63;1.42;;;;;;;;;;5009583;28;20416;-69
2022/06/25 08:09:04;;;;;;;;;;;;;;;;;;5010408;28;20024;-69
2022/06/25 08:11:30;;;;;;;2.00;1.30;;;;;;;;;;4991713;28;20235;-69
2022/06/25 08:13:56;;;;;;;1.73;1.20;;;;;;;;;;4992845;28;20032;-69
2022/06/25 08:16:22;;;;;;;2.28;1.60;;;;;;;;;;5009538;28;20450;-69
2022/06/25 08:18:47;;;;;;;1.95;1.58;;;;;;;;;;5009755;28;20431;-69
2022/06/25 08:21:13;;;;;;;3.63;1.30;;;;;;;;;;5009839;28;20332;-69
2022/06/25 08:23:39;;;;;;;1.88;1.10;;;;;;;;;;5009759;28;20359;-69
2022/06/25 08:26:04;;;;;;;2.92;1.40;;;;;;;;;;5009114;28;20325;-69
2022/06/25 08:28:30;;;;;;;4.63;1.52;;;;;;;;;;5009544;28;20090;-69
2022/06/25 08:30:55;;;;;;;2.20;1.38;;;;;;;;;;5009291;28;20515;-69
2022/06/25 08:33:22;;;;;;;1.60;1.23;;;;;;;;;;5009485;28;20360;-70
2022/06/25 08:35:48;;;;;;;1.58;1.27;;;;;;;;;;5008678;28;20051;-69
2022/06/25 08:38:13;;;;;;;2.20;1.48;;;;;;;;;;5009129;28;20051;-68
2022/06/25 08:40:39;;;;;;;2.15;1.45;;;;;;;;;;5008975;28;20481;-71
2022/06/25 08:43:05;;;;;;;1.77;1.25;;;;;;;;;;5007762;28;20028;-68
2022/06/25 08:45:30;;;;;;;1.50;1.20;;;;;;;;;;4992106;28;20362;-68
2022/06/25 08:47:58;;;;;;;1.88;1.27;;;;;;;;;;5008990;28;20344;-70
2022/06/25 08:50:23;;;;;;;2.75;1.60;;;;;;;;;;5009066;28;20327;-68
2022/06/25 08:52:50;;;;;;;2.42;1.45;;;;;;;;;;5008364;28;20336;-68
2022/06/25 08:55:39;;;;;;;2.60;1.40;;;;;;;;;;4990553;28;20438;-68
2022/06/25 08:58:05;;;;;;;;;;;;;;;;;;5009987;28;20355;-69
2022/06/25 09:00:32;;;;;;;1.52;1.25;;;;;;;;;;4990850;28;19908;-70
2022/06/25 09:02:58;;;;;;;1.13;0.97;;;;;;;;;;4990509;28;20432;-69
2022/06/25 09:05:25;;;;;;;1.63;1.23;;;;;;;;;;5008659;28;20028;-69
2022/06/25 09:07:55;;;;;;;1.60;1.50;;;;;;;;;;4990330;28;20029;-69
2022/06/25 09:10:22;;;;;;;1.58;1.05;;;;;;;;;;4990842;28;20141;-69
2022/06/25 09:12:52;;;;;;;1.55;1.15;;;;;;;;;;4990296;28;20055;-69
2022/06/25 09:15:20;;;;;;;2.65;1.30;;;;;;;;;;5008515;28;20339;-69
2022/06/25 09:17:47;;;;;;;1.83;1.30;;;;;;;;;;4990437;28;20456;-68
2022/06/25 09:20:13;;;;;;;2.13;1.30;;;;;;;;;;4990912;28;20447;-68
2022/06/25 09:22:38;;;;;;;1.80;1.20;;;;;;;;;;5008117;28;20565;-69
2022/06/25 09:25:04;;;;;;;1.85;1.20;;;;;;;;;;5008475;28;20508;-68
2022/06/25 09:27:39;;;;;;;1.98;1.30;;;;;;;;;;5008159;28;20560;-68
2022/06/25 09:30:12;;;;;;;1.50;1.13;;;;;;;;;;5007975;28;20431;-68
2022/06/25 09:32:53;;;;;;;2.83;1.10;;;;;;;;;;5008475;28;20420;-68
2022/06/25 09:35:36;;;;;;;1.38;1.05;;;;;;;;;;5008608;28;20435;-68
2022/06/25 09:38:06;;;;;;;3.92;1.23;;;;;;;;;;4990302;28;20381;-68
2022/06/25 09:40:32;;;;;;;3.15;1.10;;;;;;;;;;5008512;28;20163;-69
2022/06/25 09:42:58;;;;;;;2.30;1.33;;;;;;;;;;5009681;28;20033;-69
2022/06/25 09:45:23;;;;;;;1.27;0.90;;;;;;;;;;5008379;28;20494;-69
2022/06/25 09:47:48;;;;;;;1.35;0.95;;;;;;;;;;4990468;28;20166;-68
2022/06/25 09:50:19;;;;;;;1.38;1.15;;;;;;;;;;4990041;28;20021;-69
2022/06/25 09:52:56;;;;;;;1.48;0.90;;;;;;;;;;4990429;28;20347;-69
2022/06/25 09:55:24;;;;;;;3.53;1.42;;;;;;;;;;5008171;28;20412;-69
2022/06/25 09:57:51;;;;;;;1.33;1.10;;;;;;;;;;5008982;28;20490;-68
2022/06/25 10:00:18;;;;;;;1.42;1.17;;;;;;;;;;4990538;28;20447;-69
2022/06/25 10:02:49;;;;;;;2.08;1.20;;;;;;;;;;5008372;28;20519;-68
2022/06/25 10:05:21;;;;;;;2.20;1.00;;;;;;;;;;5008026;28;20330;-69
2022/06/25 10:07:59;;;;;;;1.33;0.93;;;;;;;;;;5011404;28;20455;-70
2022/06/25 10:10:25;;;;;;;1.08;0.98;;;;;;;;;;4995421;28;20400;-70
2022/06/25 10:12:51;;;;;;;1.27;1.02;;;;;;;;;;4993471;28;20506;-69
2022/06/25 10:15:19;;;;;;;2.00;1.20;;;;;;;;;;5012917;28;20507;-69
2022/06/25 10:17:46;;;;;;;1.85;1.17;;;;;;;;;;4993688;28;20496;-69
2022/06/25 10:20:13;;;;;;;1.98;1.40;;;;;;;;;;5013478;28;20454;-69
2022/06/25 10:22:38;;;;;;;5.93;1.17;;;;;;;;;;5011385;28;20076;-68
2022/06/25 10:25:06;;;;;;;1.30;1.05;;;;;;;;;;4994201;28;20375;-68
2022/06/25 10:27:43;;;;;;;1.55;1.10;;;;;;;;;;4993636;28;20513;-68
2022/06/25 10:30:09;;;;;;;1.40;1.08;;;;;;;;;;5011380;28;20367;-68
2022/06/25 10:32:43;;;;;;;1.20;1.08;;;;;;;;;;5011427;28;20554;-69
2022/06/25 10:35:08;;;;;;;2.05;1.52;;;;;;;;;;5010271;28;20350;-66
2022/06/25 10:38:06;;;;;;;1.52;1.17;;;;;;;;;;5011901;28;20327;-68
2022/06/25 10:40:33;;;;;;;8.35;1.30;;;;;;;;;;5011039;28;20040;-67
2022/06/25 10:43:04;;;;;;;18.40;1.80;;;;;;;;;;4993266;28;20379;-68
2022/06/25 10:45:32;;;;;;;19.80;2.63;;;;;;;;;;5010994;28;20480;-68
2022/06/25 10:47:58;;;;;;;11.57;1.30;;;;;;;;;;4993310;28;20422;-69
2022/06/25 10:50:25;;;;;;;10.40;1.70;;;;;;;;;;4992834;28;20393;-68
2022/06/25 10:53:05;;;;;;;7.05;1.45;;;;;;;;;;4992930;28;20344;-68
2022/06/25 10:55:35;;;;;;;10.48;2.00;;;;;;;;;;5010666;28;20435;-69
2022/06/25 10:58:15;;;;;;;7.80;1.45;;;;;;;;;;5010686;28;20506;-68
2022/06/25 11:00:49;;;;;;;4.15;1.58;;;;;;;;;;5027153;28;20115;-69
2022/06/25 11:03:34;;;;;;;2.60;1.35;;;;;;;;;;5011494;28;20461;-68
2022/06/25 11:06:17;;;;;;;5.05;1.40;;;;;;;;;;5019425;28;20444;-69
2022/06/25 11:08:43;;;;;;;7.10;1.60;;;;;;;;;;5012719;28;20095;-68
2022/06/25 11:11:10;;;;;;;8.88;1.60;;;;;;;;;;5012854;28;20316;-68
2022/06/25 11:13:35;;;;;;;9.27;1.77;;;;;;;;;;5030637;28;20330;-68
2022/06/25 11:16:12;;;;;;;5.03;1.45;;;;;;;;;;5030741;28;20051;-68
2022/06/25 11:18:46;;;;;;;2.72;1.45;;;;;;;;;;5029449;28;20466;-68
2022/06/25 11:21:24;;;;;;;5.15;1.48;;;;;;;;;;5030445;28;20426;-68
2022/06/25 11:23:50;;;;;;;2.78;1.25;;;;;;;;;;5012675;28;20522;-68
2022/06/25 11:29:00;;;;;;;5.47;1.33;;;;;;;;;;5030336;28;20363;-68
2022/06/25 11:31:26;;;;;;;1.90;1.15;;;;;;;;;;5030137;28;20440;-68
2022/06/25 11:33:53;;;;;;;5.22;1.45;;;;;;;;;;5030039;28;20351;-68
2022/06/25 11:36:20;;;;;;;1.85;1.05;;;;;;;;;;5012586;28;20496;-68
2022/06/25 11:38:54;;;;;;;7.32;1.40;;;;;;;;;;5012496;28;20414;-68
2022/06/25 11:41:28;;;;;;;2.15;0.90;;;;;;;;;;5011980;28;20429;-69
2022/06/25 11:43:54;;;;;;;4.65;1.10;;;;;;;;;;5012401;28;20404;-69
2022/06/25 11:46:20;;;;;;;2.22;0.93;;;;;;;;;;5011899;28;20465;-69
2022/06/25 11:48:50;;;;;;;1.25;1.00;;;;;;;;;;5011767;28;20415;-69
2022/06/25 11:51:26;;;;;;;1.20;0.98;;;;;;;;;;5011597;28;20399;-69
2022/06/25 11:53:52;;;;;;;3.17;1.00;;;;;;;;;;5012856;28;20466;-69
2022/06/25 11:56:18;;;;;;;1.20;0.93;;;;;;;;;;5011604;28;20347;-69
2022/06/25 11:58:44;;;;;;;3.83;0.93;;;;;;;;;;5011219;28;20032;-69
2022/06/25 12:01:09;;;;;;;1.42;1.10;;;;;;;;;;5011279;28;20473;-68
2022/06/25 12:03:35;;;;;;;2.45;1.17;;;;;;;;;;5029250;28;20430;-68
2022/06/25 12:06:02;;;;;;;2.15;1.20;;;;;;;;;;5011548;28;20346;-69
2022/06/25 12:08:28;;;;;;;2.80;1.10;;;;;;;;;;5011376;28;20020;-69
2022/06/25 12:10:55;;;;;;;1.65;0.88;;;;;;;;;;5011411;28;20415;-69
2022/06/25 12:13:22;;;;;;;3.22;1.10;;;;;;;;;;5011266;28;20093;-68
2022/06/25 12:15:54;;;;;;;1.02;0.70;;;;;;;;;;5011322;28;20430;-68
2022/06/25 12:18:32;;;;;;;2.00;1.20;;;;;;;;;;5011545;28;20462;-68
2022/06/25 12:20:58;;;;;;;1.83;0.93;;;;;;;;;;5029128;28;20097;-69
2022/06/25 12:23:24;;;;;;;2.00;1.00;;;;;;;;;;5028203;28;20478;-68
2022/06/25 12:25:49;;;;;;;3.08;1.00;;;;;;;;;;5030231;28;20527;-69
2022/06/25 12:28:15;;;;;;;0.70;0.65;;;;;;;;;;5029324;28;20316;-68
2022/06/25 12:30:41;;;;;;;1.48;0.88;;;;;;;;;;5027113;28;20092;-70
2022/06/25 12:33:17;;;;;;;1.90;0.90;;;;;;;;;;5011166;28;20028;-68
2022/06/25 12:35:44;;;;;;;2.03;1.10;;;;;;;;;;5012261;28;20521;-69
2022/06/25 12:38:14;;;;;;;2.92;1.27;;;;;;;;;;5029020;28;20342;-69
2022/06/25 12:40:41;;;;;;;3.78;0.93;;;;;;;;;;5010837;28;20489;-68
2022/06/25 12:43:09;;;;;;;1.08;0.80;;;;;;;;;;5010891;28;20435;-68
2022/06/25 12:45:35;;;;;;;1.40;1.00;;;;;;;;;;5029297;28;20450;-68
2022/06/25 12:48:02;;;;;;;1.58;1.17;;;;;;;;;;5029088;28;20043;-69
2022/06/25 12:50:33;;;;;;;1.95;1.20;;;;;;;;;;5010669;28;20178;-68
2022/06/25 12:53:13;;;;;;;2.38;1.33;;;;;;;;;;5010773;28;20024;-68
2022/06/25 12:55:40;;;;;;;1.15;0.85;;;;;;;;;;5011636;28;20449;-68
2022/06/25 12:58:14;;;;;;;1.40;0.77;;;;;;;;;;5010354;28;20499;-68
2022/06/25 13:00:44;;;;;;;3.15;1.00;;;;;;;;;;5028783;28;20457;-67
2022/06/25 13:03:10;;;;;;;1.90;1.10;;;;;;;;;;5028477;28;20020;-67
2022/06/25 13:05:36;;;;;;;2.70;1.00;;;;;;;;;;5010797;28;20054;-67
2022/06/25 13:08:02;;;;;;;1.40;1.17;;;;;;;;;;5028640;28;20503;-69
2022/06/25 13:10:29;;;;;;;3.20;1.10;;;;;;;;;;5029197;28;20459;-68
2022/06/25 13:12:54;;;;;;;1.08;0.65;;;;;;;;;;5010621;28;20396;-68
2022/06/25 13:15:21;;;;;;;1.58;1.00;;;;;;;;;;5029946;28;20024;-67
2022/06/25 13:17:47;;;;;;;2.88;1.08;;;;;;;;;;5030656;28;20059;-69
2022/06/25 13:20:13;;;;;;;1.38;0.85;;;;;;;;;;5028728;28;20374;-68
2022/06/25 13:22:38;;;;;;;1.52;1.10;;;;;;;;;;5028621;28;20359;-68
2022/06/25 13:25:07;;;;;;;1.20;0.80;;;;;;;;;;5010726;28;20374;-67
2022/06/25 13:27:33;;;;;;;3.08;1.10;;;;;;;;;;5028007;28;20516;-68
2022/06/25 13:29:59;;;;;;;1.17;0.95;;;;;;;;;;5010239;28;20439;-69
2022/06/25 13:32:25;;;;;;;2.15;1.00;;;;;;;;;;5028162;28;20347;-68
2022/06/25 13:34:50;;;;;;;1.00;0.90;;;;;;;;;;5010371;28;20028;-67
2022/06/25 13:37:16;;;;;;;2.33;1.27;;;;;;;;;;5029255;28;20111;-68
2022/06/25 13:39:42;;;;;;;2.25;1.30;;;;;;;;;;5010169;28;20428;-68
2022/06/25 13:42:08;;;;;;;2.30;1.75;;;;;;;;;;5032124;28;20466;-68
2022/06/25 13:44:36;;;;;;;2.05;1.00;;;;;;;;;;5014124;28;20386;-69
2022/06/25 13:47:05;;;;;;;1.05;0.90;;;;;;;;;;5014519;28;20343;-69
2022/06/25 13:49:31;;;;;;;1.88;0.90;;;;;;;;;;5033374;28;20560;-68
2022/06/25 13:51:57;;;;;;;3.35;1.10;;;;;;;;;;5033361;28;20435;-68
2022/06/25 13:54:23;;;;;;;1.25;0.82;;;;;;;;;;5032170;28;20419;-67
2022/06/25 13:56:49;;;;;;;6.72;2.22;;;;;;;;;;5032156;28;20369;-68
2022/06/25 13:59:14;;;;;;;1.50;1.00;;;;;;;;;;5013284;28;20024;-68
2022/06/25 14:01:40;;;;;;;1.70;1.20;;;;;;;;;;5031584;28;20508;-67
2022/06/25 14:04:05;;;;;;;2.40;0.90;;;;;;;;;;5013827;28;20387;-68
2022/06/25 14:06:32;;;;;;;1.20;1.10;;;;;;;;;;5031679;28;20047;-69
2022/06/25 14:08:57;;;;;;;1.35;1.10;;;;;;;;;;5032204;28;20112;-68
2022/06/25 14:11:23;;;;;;;1.38;0.90;;;;;;;;;;5030387;28;20046;-68
2022/06/25 14:13:48;;;;;;;1.13;1.00;;;;;;;;;;5033109;28;20423;-68
2022/06/25 14:16:14;;;;;;;1.15;0.95;;;;;;;;;;5013861;28;20468;-68
2022/06/25 14:18:40;;;;;;;1.65;1.08;;;;;;;;;;5031675;28;20431;-67
2022/06/25 14:21:05;;;;;;;1.20;1.05;;;;;;;;;;5031571;28;20492;-68
2022/06/25 14:23:31;;;;;;;1.13;0.80;;;;;;;;;;5013057;28;20455;-68
2022/06/25 14:25:56;;;;;;;2.53;1.10;;;;;;;;;;5031366;28;20450;-69
2022/06/25 14:28:23;;;;;;;2.28;1.13;;;;;;;;;;5031043;28;20074;-68
2022/06/25 14:30:49;;;;;;;1.88;1.13;;;;;;;;;;5030569;28;20451;-69
2022/06/25 14:33:14;;;;;;;0.85;0.82;;;;;;;;;;5013139;28;20107;-68
2022/06/25 14:42:20;;;;;;;1.10;1.00;;;;;;;;;;5012960;28;20377;-68
2022/06/25 14:43:54;;;;;;;1.48;1.17;;;;;;;;;;5015766;28;20571;-68
2022/06/25 14:46:20;;;;;;;4.03;1.08;;;;;;;;;;5012890;28;20686;-68
2022/06/25 14:48:45;;;;;;;2.05;0.90;;;;;;;;;;5031046;28;20489;-69
2022/06/25 14:51:11;;;;;;;1.85;1.33;;;;;;;;;;5012705;28;20453;-68
2022/06/25 14:53:36;;;;;;;1.77;1.08;;;;;;;;;;5030731;28;20312;-70
2022/06/25 14:56:01;;;;;;;1.15;0.90;;;;;;;;;;5030738;28;20419;-68
2022/06/25 14:58:27;;;;;;;1.23;1.00;;;;;;;;;;5030953;28;20427;-68